createdAt,value
2024-02-10T00:04:19.089Z,27.83
2024-02-10T00:09:11.664Z,26.58
2024-02-10T00:14:03.761Z,28.77
2024-02-10T00:18:58.954Z,26.98
2024-02-10T00:23:50.956Z,28.10
2024-02-10T00:28:42.744Z,28.45
2024-02-10T00:33:35.605Z,25.13
2024-02-10T00:38:27.531Z,26.13
2024-02-10T00:43:19.301Z,25.15
2024-02-10T00:48:11.260Z,28.75
2024-02-10T00:53:04.432Z,25.83
2024-02-10T00:57:56.252Z,25.38
2024-02-10T01:02:48.095Z,27.08
2024-02-10T01:07:42.735Z,26.42
2024-02-10T01:12:35.019Z,23.85
2024-02-10T01:17:27.773Z,25.63
2024-02-10T01:22:27.414Z,24.13
2024-02-10T01:27:19.598Z,24.85
2024-02-10T01:32:11.918Z,27.13
2024-02-10T01:37:03.945Z,24.10
2024-02-10T01:41:55.710Z,24.00
2024-02-10T01:46:48.493Z,22.23
2024-02-10T01:51:40.344Z,24.92
2024-02-10T01:56:35.204Z,25.77
2024-02-10T02:01:27.496Z,24.02
2024-02-10T02:06:20.217Z,23.00
2024-02-10T02:11:12.399Z,25.92
2024-02-10T02:16:04.347Z,25.05
2024-02-10T02:20:56.134Z,21.75
2024-02-10T02:25:50.163Z,22.65
2024-02-10T02:30:41.963Z,22.02
2024-02-10T02:35:33.793Z,22.80
2024-02-10T02:40:27.368Z,24.85
2024-02-10T02:45:19.286Z,23.30
2024-02-10T02:50:11.395Z,23.33
2024-02-10T02:55:03.718Z,22.23
2024-02-10T02:59:55.933Z,23.65
2024-02-10T03:04:47.715Z,24.50
2024-02-10T03:09:39.545Z,23.90
2024-02-10T03:14:31.400Z,24.45
2024-02-10T03:19:23.284Z,25.33
2024-02-10T03:24:15.167Z,25.23
2024-02-10T03:29:07.722Z,26.90
2024-02-10T03:34:00.201Z,25.77
2024-02-10T03:38:56.197Z,24.50
2024-02-10T03:43:48.084Z,26.75
2024-02-10T03:48:41.505Z,25.63
2024-02-10T03:53:34.229Z,28.80
2024-02-10T03:58:26.594Z,26.65
2024-02-10T04:03:18.834Z,29.05
2024-02-10T04:08:11.470Z,27.90
2024-02-10T04:13:03.690Z,28.75
2024-02-10T04:17:57.356Z,28.05
2024-02-10T04:22:49.300Z,26.08
2024-02-10T04:27:41.502Z,28.27
2024-02-10T04:32:34.052Z,27.27
2024-02-10T04:37:26.043Z,27.27
2024-02-10T04:42:17.816Z,28.52
2024-02-10T04:47:11.219Z,27.33
2024-02-10T04:52:03.354Z,24.85
2024-02-10T04:56:55.199Z,27.65
2024-02-10T05:01:46.972Z,26.70
2024-02-10T05:06:38.790Z,27.17
2024-02-10T05:11:36.529Z,27.55
2024-02-10T05:16:29.403Z,26.60
2024-02-10T05:21:24.126Z,26.10
2024-02-10T05:26:19.571Z,25.02
2024-02-10T05:31:12.527Z,24.90
2024-02-10T05:36:04.585Z,23.27
2024-02-10T05:40:56.382Z,24.33
2024-02-10T05:45:48.881Z,24.33
2024-02-10T05:50:40.681Z,22.33
2024-02-10T05:55:33.170Z,23.67
2024-02-10T06:00:25.031Z,25.38
2024-02-10T06:05:17.404Z,23.10
2024-02-10T06:10:14.069Z,24.23
2024-02-10T06:15:11.187Z,23.48
2024-02-10T06:20:24.097Z,24.88
2024-02-10T06:25:26.689Z,26.08
2024-02-10T06:30:20.307Z,28.00
2024-02-10T06:35:13.163Z,25.75
2024-02-10T06:40:06.600Z,23.85
2024-02-10T06:45:00.582Z,25.10
2024-02-10T06:49:52.391Z,25.85
2024-02-10T06:54:44.235Z,24.63
2024-02-10T06:59:39.482Z,24.27
2024-02-10T07:04:31.337Z,24.60
2024-02-10T07:09:23.296Z,23.33
2024-02-10T07:14:15.841Z,23.08
2024-02-10T07:19:07.920Z,21.90
2024-02-10T07:24:03.548Z,24.40
2024-02-10T07:28:57.240Z,25.63
2024-02-10T07:33:49.144Z,45.53
2024-02-10T07:38:41.004Z,34.40
2024-02-10T07:43:33.523Z,30.90
2024-02-10T07:48:25.450Z,31.27
2024-02-10T07:53:17.283Z,27.63
2024-02-10T07:58:10.899Z,29.05
2024-02-10T08:03:05.269Z,28.95
2024-02-10T08:08:02.966Z,26.75
2024-02-10T08:12:55.390Z,29.30
2024-02-10T08:17:47.329Z,27.70
2024-02-10T08:22:39.226Z,26.33
2024-02-10T08:27:32.968Z,27.10
2024-02-10T08:32:25.913Z,24.58
2024-02-10T08:37:18.499Z,25.83
2024-02-10T08:42:11.118Z,24.02
2024-02-10T08:47:07.703Z,35.30
2024-02-10T08:52:08.352Z,28.85
2024-02-10T08:57:11.425Z,26.35
2024-02-10T09:02:04.208Z,27.40
2024-02-10T09:06:56.197Z,23.67
2024-02-10T09:11:49.202Z,25.92
2024-02-10T09:16:41.202Z,24.55
2024-02-10T09:21:33.163Z,24.10
2024-02-10T09:26:26.483Z,21.77
2024-02-10T09:31:21.326Z,24.20
2024-02-10T09:36:13.391Z,22.73
2024-02-10T09:41:06.310Z,23.27
2024-02-10T09:45:58.586Z,23.30
2024-02-10T09:50:50.549Z,22.02
2024-02-10T09:55:43.496Z,21.60
2024-02-10T10:00:39.477Z,21.77
2024-02-10T10:05:38.479Z,20.95
2024-02-10T10:10:30.302Z,24.90
2024-02-10T10:15:22.196Z,25.02
2024-02-10T10:20:14.180Z,24.33
2024-02-10T10:25:09.579Z,23.70
2024-02-10T10:30:03.116Z,22.45
2024-02-10T10:34:59.765Z,22.15
2024-02-10T10:39:53.081Z,20.73
2024-02-10T10:44:45.374Z,22.25
2024-02-10T10:49:37.834Z,21.52
2024-02-10T10:54:41.676Z,27.15
2024-02-10T10:59:37.353Z,25.55
2024-02-10T11:04:29.257Z,26.08
2024-02-10T11:09:23.148Z,25.13
2024-02-10T11:14:15.104Z,23.33
2024-02-10T11:19:10.142Z,26.15
2024-02-10T11:24:19.909Z,23.83
2024-02-10T11:29:19.969Z,24.17
2024-02-10T11:34:19.489Z,25.35
2024-02-10T11:39:12.054Z,27.42
2024-02-10T11:44:04.247Z,30.65
2024-02-10T11:49:01.903Z,27.00
2024-02-10T11:53:53.852Z,29.60
2024-02-10T11:58:48.504Z,27.27
2024-02-10T12:03:44.035Z,29.05
2024-02-10T12:08:36.601Z,28.30
2024-02-10T12:13:28.482Z,33.45
2024-02-10T12:18:21.053Z,29.27
2024-02-10T12:23:14.946Z,26.65
2024-02-10T12:28:07.054Z,28.05
2024-02-10T12:33:00.019Z,25.63
2024-02-10T12:37:52.010Z,28.20
2024-02-10T12:42:43.902Z,27.15
2024-02-10T12:47:39.130Z,31.80
2024-02-10T12:52:31.906Z,33.40
2024-02-10T12:57:23.883Z,31.23
2024-02-10T13:02:15.702Z,30.38
2024-02-10T13:07:07.631Z,35.80
2024-02-10T13:11:59.485Z,32.28
2024-02-10T13:16:51.349Z,31.90
2024-02-10T13:21:44.772Z,29.55
2024-02-10T13:26:36.647Z,35.22
2024-02-10T13:31:28.747Z,34.40
2024-02-10T13:36:23.137Z,34.92
2024-02-10T13:41:33.820Z,31.67
2024-02-10T13:46:44.414Z,32.83
2024-02-10T13:51:55.044Z,45.22
2024-02-10T13:57:05.912Z,36.67
2024-02-10T14:02:16.366Z,33.67
2024-02-10T14:07:27.211Z,31.88
2024-02-10T14:12:19.479Z,29.35
2024-02-10T14:17:16.366Z,28.55
2024-02-10T14:22:13.628Z,29.75
2024-02-10T14:27:15.424Z,33.65
2024-02-10T14:32:21.668Z,31.73
2024-02-10T14:37:32.525Z,25.92
2024-02-10T14:42:24.376Z,32.10
2024-02-10T14:47:18.163Z,27.15
2024-02-10T14:52:12.904Z,25.08
2024-02-10T14:57:05.123Z,23.23
2024-02-10T15:01:58.279Z,24.70
2024-02-10T15:06:50.181Z,23.02
2024-02-10T15:11:41.984Z,27.50
2024-02-10T15:16:34.033Z,28.40
2024-02-10T15:21:30.782Z,19.77
2024-02-10T15:26:23.517Z,16.55
2024-02-10T15:31:20.301Z,11.70
2024-02-10T15:36:28.138Z,14.27
2024-02-10T15:41:20.358Z,17.83
2024-02-10T15:46:12.129Z,12.65
2024-02-10T15:51:04.663Z,14.90
2024-02-10T15:55:56.829Z,13.30
2024-02-10T16:00:50.267Z,14.07
2024-02-10T16:05:42.282Z,18.20
2024-02-10T16:10:34.927Z,16.95
2024-02-10T16:15:28.184Z,16.85
2024-02-10T16:20:23.092Z,16.85
2024-02-10T16:25:14.987Z,27.42
2024-02-10T16:30:10.830Z,17.58
2024-02-10T16:35:06.210Z,15.68
2024-02-10T16:40:01.657Z,15.30
2024-02-10T16:44:55.357Z,19.45
2024-02-10T16:49:50.965Z,17.58
2024-02-10T16:54:42.757Z,16.88
2024-02-10T16:59:34.709Z,18.48
2024-02-10T17:04:26.583Z,17.13
2024-02-10T17:09:19.037Z,18.70
2024-02-10T17:14:10.966Z,19.75
2024-02-10T17:19:03.394Z,17.45
2024-02-10T17:23:55.293Z,21.58
2024-02-10T17:28:47.246Z,19.70
2024-02-10T17:33:43.004Z,18.67
2024-02-10T17:38:35.546Z,19.00
2024-02-10T17:43:27.589Z,20.42
2024-02-10T17:48:24.955Z,19.63
2024-02-10T17:53:29.170Z,19.43
2024-02-10T17:58:22.683Z,20.95
2024-02-10T18:03:14.770Z,20.52
2024-02-10T18:08:07.311Z,19.10
2024-02-10T18:13:02.174Z,17.80
2024-02-10T18:17:54.022Z,19.85
2024-02-10T18:22:46.805Z,19.45
2024-02-10T18:27:41.330Z,21.45
2024-02-10T18:32:33.609Z,19.88
2024-02-10T18:37:26.602Z,21.50
2024-02-10T18:42:18.451Z,20.95
2024-02-10T18:47:10.379Z,21.52
2024-02-10T18:52:04.777Z,20.27
2024-02-10T18:56:59.177Z,19.95
2024-02-10T19:01:58.816Z,21.55
2024-02-10T19:06:51.120Z,23.92
2024-02-10T19:11:43.260Z,21.30
2024-02-10T19:16:35.094Z,22.30
2024-02-10T19:21:27.637Z,20.33
2024-02-10T19:26:21.476Z,20.50
2024-02-10T19:31:15.208Z,17.65
2024-02-10T19:36:09.229Z,20.83
2024-02-10T19:41:01.239Z,17.02
2024-02-10T19:45:53.086Z,17.42
2024-02-10T19:50:47.009Z,19.10
2024-02-10T19:55:38.918Z,17.77
2024-02-10T20:00:30.811Z,17.48
2024-02-10T20:05:23.306Z,18.48
2024-02-10T20:10:19.762Z,17.15
2024-02-10T20:15:12.245Z,16.95
2024-02-10T20:20:08.412Z,19.38
2024-02-10T20:25:00.611Z,19.23
2024-02-10T20:29:54.344Z,22.92
2024-02-10T20:34:46.809Z,21.92
2024-02-10T20:39:40.765Z,18.33
2024-02-10T20:44:32.564Z,19.35
2024-02-10T20:49:24.891Z,17.58
2024-02-10T20:54:18.905Z,14.40
2024-02-10T20:59:11.088Z,16.27
2024-02-10T21:04:07.893Z,17.10
2024-02-10T21:09:02.595Z,16.95
2024-02-10T21:13:54.399Z,16.42
2024-02-10T21:18:49.678Z,13.77
2024-02-10T21:23:41.464Z,31.95
2024-02-10T21:28:37.292Z,19.98
2024-02-10T21:33:29.588Z,14.65
2024-02-10T21:38:21.421Z,15.93
2024-02-10T21:43:13.189Z,14.70
2024-02-10T21:48:05.277Z,16.40
2024-02-10T21:52:57.215Z,17.35
2024-02-10T21:57:49.013Z,16.33
2024-02-10T22:02:40.881Z,15.32
2024-02-10T22:07:33.792Z,14.20
2024-02-10T22:12:25.573Z,17.05
2024-02-10T22:17:17.446Z,15.32
2024-02-10T22:22:11.076Z,13.88
2024-02-10T22:27:03.342Z,12.90
2024-02-10T22:31:55.357Z,11.27
2024-02-10T22:36:47.550Z,13.23
2024-02-10T22:41:42.257Z,15.85
2024-02-10T22:46:34.030Z,11.65
2024-02-10T22:51:25.883Z,13.38
2024-02-10T22:56:18.621Z,14.48
2024-02-10T23:01:10.841Z,13.93
2024-02-10T23:06:02.868Z,11.45
2024-02-10T23:10:54.752Z,12.27
2024-02-10T23:15:49.324Z,11.13
2024-02-10T23:20:48.226Z,13.57
2024-02-10T23:25:50.671Z,12.57
2024-02-10T23:30:53.094Z,12.18
2024-02-10T23:35:45.064Z,15.80
2024-02-10T23:40:36.945Z,13.75
2024-02-10T23:45:28.846Z,13.40
2024-02-10T23:50:21.069Z,12.80
2024-02-10T23:55:14.553Z,16.02
